createdAt,value
2023-02-18T00:00:38.579Z,52.37
2023-02-18T00:04:41.413Z,60.87
2023-02-18T00:08:48.269Z,53.43
2023-02-18T00:12:51.119Z,54.27
2023-02-18T00:16:54.981Z,59.50
2023-02-18T00:20:57.852Z,71.27
2023-02-18T00:25:03.002Z,59.63
2023-02-18T00:29:05.835Z,55.83
2023-02-18T00:33:08.681Z,54.77
2023-02-18T00:37:11.500Z,66.13
2023-02-18T00:41:15.859Z,62.83
2023-02-18T00:45:18.703Z,58.60
2023-02-18T00:49:21.523Z,56.77
2023-02-18T00:53:24.693Z,60.07
2023-02-18T00:57:28.928Z,60.43
2023-02-18T01:01:32.568Z,58.33
2023-02-18T01:05:36.619Z,57.23
2023-02-18T01:09:42.417Z,54.23
2023-02-18T01:13:46.755Z,53.53
2023-02-18T01:17:49.626Z,49.30
2023-02-18T01:21:52.475Z,52.80
2023-02-18T01:25:58.037Z,51.07
2023-02-18T01:30:02.341Z,55.77
2023-02-18T01:34:05.333Z,49.37
2023-02-18T01:38:08.352Z,55.07
2023-02-18T01:42:19.879Z,51.33
2023-02-18T01:46:24.081Z,51.60
2023-02-18T01:50:28.032Z,52.27
2023-02-18T01:54:34.207Z,49.30
2023-02-18T01:58:37.604Z,62.47
2023-02-18T02:02:45.395Z,61.43
2023-02-18T02:06:49.635Z,55.37
2023-02-18T02:11:08.595Z,57.33
2023-02-18T02:15:24.997Z,49.23
2023-02-18T02:20:10.091Z,47.23
2023-02-18T02:24:41.469Z,51.17
2023-02-18T02:29:25.662Z,60.10
2023-02-18T02:34:02.246Z,51.37
2023-02-18T02:38:11.513Z,61.63
2023-02-18T02:42:21.345Z,49.20
2023-02-18T02:46:29.345Z,52.27
2023-02-18T02:50:38.451Z,51.80
2023-02-18T02:54:43.142Z,55.57
2023-02-18T02:58:52.279Z,56.10
2023-02-18T03:03:30.020Z,57.37
2023-02-18T03:07:56.269Z,51.70
2023-02-18T03:12:08.362Z,52.90
2023-02-18T03:16:19.138Z,51.80
2023-02-18T03:20:27.596Z,55.93
2023-02-18T03:24:36.169Z,52.00
2023-02-18T03:28:41.501Z,46.37
2023-02-18T03:32:48.905Z,45.43
2023-02-18T03:36:52.281Z,44.17
2023-02-18T03:40:55.173Z,49.33
2023-02-18T03:44:59.945Z,51.80
2023-02-18T03:49:03.006Z,48.83
2023-02-18T03:53:05.860Z,51.03
2023-02-18T03:57:08.774Z,51.80
2023-02-18T04:01:13.305Z,48.40
2023-02-18T04:05:16.592Z,55.43
2023-02-18T04:09:19.399Z,52.47
2023-02-18T04:13:22.250Z,45.23
2023-02-18T04:17:26.769Z,41.47
2023-02-18T04:21:29.586Z,44.47
2023-02-18T04:25:32.470Z,49.90
2023-02-18T04:29:35.528Z,42.43
2023-02-18T04:33:39.697Z,44.73
2023-02-18T04:37:42.951Z,37.07
2023-02-18T04:41:45.844Z,35.13
2023-02-18T04:45:48.716Z,27.87
2023-02-18T04:49:52.858Z,30.27
2023-02-18T04:53:55.673Z,24.73
2023-02-18T04:57:58.550Z,32.10
2023-02-18T05:02:02.115Z,22.20
2023-02-18T05:06:07.404Z,25.27
2023-02-18T05:10:12.043Z,19.83
2023-02-18T05:14:15.297Z,24.27
2023-02-18T05:18:18.150Z,17.20
2023-02-18T05:22:22.371Z,21.80
2023-02-18T05:26:25.239Z,18.43
2023-02-18T05:30:28.069Z,20.23
2023-02-18T05:34:30.895Z,17.17
2023-02-18T05:38:35.124Z,12.87
2023-02-18T05:42:37.886Z,13.30
2023-02-18T05:46:40.761Z,10.10
2023-02-18T05:50:43.690Z,12.37
2023-02-18T05:54:47.900Z,11.10
2023-02-18T05:58:50.866Z,9.53
2023-02-18T06:02:54.098Z,7.93
2023-02-18T06:06:57.166Z,9.27
2023-02-18T06:11:01.361Z,7.97
2023-02-18T06:15:04.698Z,5.97
2023-02-18T06:19:07.604Z,7.87
2023-02-18T06:23:11.741Z,7.03
2023-02-18T06:27:15.944Z,4.10
2023-02-18T06:31:18.994Z,6.47
2023-02-18T06:35:21.868Z,4.60
2023-02-18T06:39:24.758Z,5.20
2023-02-18T06:43:29.127Z,5.63
2023-02-18T06:47:31.906Z,6.13
2023-02-18T06:51:34.665Z,7.67
2023-02-18T06:55:37.700Z,8.93
2023-02-18T06:59:41.877Z,7.30
2023-02-18T07:03:44.777Z,4.77
2023-02-18T07:07:47.769Z,4.47
2023-02-18T07:11:50.588Z,3.70
2023-02-18T07:15:54.728Z,3.97
2023-02-18T07:19:57.597Z,5.20
2023-02-18T07:24:00.401Z,5.87
2023-02-18T07:28:03.256Z,10.17
2023-02-18T07:32:07.698Z,7.53
2023-02-18T07:36:11.194Z,7.27
2023-02-18T07:40:17.684Z,7.20
2023-02-18T07:44:20.520Z,8.33
2023-02-18T07:48:24.753Z,8.37
2023-02-18T07:52:27.533Z,8.07
2023-02-18T07:56:30.343Z,7.20
2023-02-18T08:00:33.190Z,8.33
2023-02-18T08:04:37.493Z,6.23
2023-02-18T08:08:40.316Z,6.83
2023-02-18T08:12:43.218Z,5.50
2023-02-18T08:16:46.099Z,5.10
2023-02-18T08:20:51.715Z,6.57
2023-02-18T08:24:56.321Z,4.93
2023-02-18T08:28:59.432Z,3.97
2023-02-18T08:33:02.220Z,4.60
2023-02-18T08:37:06.722Z,6.83
2023-02-18T08:41:10.324Z,5.20
2023-02-18T08:45:13.326Z,6.57
2023-02-18T08:49:16.106Z,6.40
2023-02-18T08:53:20.359Z,8.07
2023-02-18T08:57:23.266Z,9.37
2023-02-18T09:01:26.218Z,9.00
2023-02-18T09:05:29.540Z,8.13
2023-02-18T09:09:33.955Z,10.70
2023-02-18T09:13:36.730Z,9.17
2023-02-18T09:17:39.581Z,11.57
2023-02-18T09:21:42.380Z,11.33
2023-02-18T09:25:46.587Z,11.33
2023-02-18T09:29:51.495Z,11.63
2023-02-18T09:33:56.360Z,18.00
2023-02-18T09:37:59.184Z,16.97
2023-02-18T09:42:05.987Z,12.93
2023-02-18T09:46:18.280Z,13.47
2023-02-18T09:50:23.730Z,12.37
2023-02-18T09:54:28.507Z,11.17
2023-02-18T09:58:35.399Z,9.67
2023-02-18T10:02:40.746Z,12.23
2023-02-18T10:06:45.850Z,8.80
2023-02-18T10:10:49.068Z,9.97
2023-02-18T10:14:55.661Z,12.20
2023-02-18T10:19:00.909Z,10.33
2023-02-18T10:23:06.305Z,7.27
2023-02-18T10:27:10.664Z,10.00
2023-02-18T10:31:19.932Z,6.83
2023-02-18T10:35:26.402Z,8.73
2023-02-18T10:39:46.251Z,7.10
2023-02-18T10:43:57.747Z,8.87
2023-02-18T10:48:21.409Z,8.13
2023-02-18T10:52:26.175Z,10.83
2023-02-18T10:56:39.344Z,6.13
2023-02-18T11:00:42.135Z,7.10
2023-02-18T11:04:47.260Z,6.20
2023-02-18T11:08:51.280Z,6.97
2023-02-18T11:12:59.019Z,9.10
2023-02-18T11:17:11.407Z,10.17
2023-02-18T11:21:29.947Z,8.57
2023-02-18T11:25:35.246Z,7.67
2023-02-18T11:29:38.720Z,6.60
2023-02-18T11:33:45.909Z,8.83
2023-02-18T11:37:50.613Z,10.30
2023-02-18T11:41:57.365Z,9.57
2023-02-18T11:46:10.938Z,10.57
2023-02-18T11:50:23.000Z,11.23
2023-02-18T11:54:31.255Z,11.67
2023-02-18T11:58:40.164Z,11.90
2023-02-18T12:02:43.172Z,12.07
2023-02-18T12:06:53.479Z,12.73
2023-02-18T12:11:04.901Z,13.47
2023-02-18T12:15:14.868Z,10.70
2023-02-18T12:19:48.343Z,16.07
2023-02-18T12:24:00.505Z,11.20
2023-02-18T12:28:20.115Z,11.80
2023-02-18T12:32:36.348Z,13.87
2023-02-18T12:36:57.286Z,13.83
2023-02-18T12:41:18.325Z,15.17
2023-02-18T12:45:42.997Z,15.23
2023-02-18T12:50:26.216Z,19.23
2023-02-18T12:54:43.642Z,15.73
2023-02-18T12:58:57.171Z,11.13
2023-02-18T13:03:32.558Z,15.10
2023-02-18T13:07:56.398Z,11.50
2023-02-18T13:12:08.602Z,14.73
2023-02-18T13:16:14.186Z,18.60
2023-02-18T13:20:22.965Z,13.50
2023-02-18T13:24:34.144Z,14.17
2023-02-18T13:28:45.081Z,12.27
2023-02-18T13:32:58.866Z,13.87
2023-02-18T13:37:09.618Z,15.07
2023-02-18T13:41:14.788Z,9.17
2023-02-18T13:45:30.346Z,11.60
2023-02-18T13:49:35.307Z,13.37
2023-02-18T13:53:39.719Z,9.73
2023-02-18T13:57:48.817Z,12.70
2023-02-18T14:01:53.854Z,12.40
2023-02-18T14:05:57.960Z,11.53
2023-02-18T14:10:03.146Z,8.50
2023-02-18T14:14:40.600Z,12.83
2023-02-18T14:19:01.778Z,10.57
2023-02-18T14:23:51.437Z,10.00
2023-02-18T14:27:55.680Z,11.00
2023-02-18T14:32:04.920Z,9.30
2023-02-18T14:36:31.548Z,11.17
2023-02-18T14:41:15.658Z,11.60
2023-02-18T14:46:02.702Z,13.13
2023-02-18T14:50:33.336Z,11.20
2023-02-18T14:54:47.843Z,11.77
2023-02-18T14:58:54.922Z,12.57
2023-02-18T15:02:58.078Z,12.30
2023-02-18T15:07:04.624Z,11.27
2023-02-18T15:11:09.382Z,13.03
2023-02-18T15:15:16.839Z,11.20
2023-02-18T15:19:23.783Z,10.33
2023-02-18T15:23:28.499Z,9.03
2023-02-18T15:27:33.361Z,10.50
2023-02-18T15:31:39.640Z,12.87
2023-02-18T15:35:43.370Z,12.90
2023-02-18T15:39:48.272Z,8.97
2023-02-18T15:44:08.264Z,9.30
2023-02-18T15:48:24.291Z,11.23
2023-02-18T15:52:31.891Z,18.37
2023-02-18T15:56:40.838Z,6.70
2023-02-18T16:00:50.816Z,11.40
2023-02-18T16:04:57.035Z,10.13
2023-02-18T16:09:03.108Z,8.50
2023-02-18T16:13:07.634Z,9.03
2023-02-18T16:17:16.314Z,9.60
2023-02-18T16:21:32.793Z,9.43
2023-02-18T16:25:43.105Z,6.83
2023-02-18T16:29:52.042Z,7.87
2023-02-18T16:33:55.116Z,7.97
2023-02-18T16:37:58.608Z,9.13
2023-02-18T16:42:01.971Z,5.97
2023-02-18T16:46:11.017Z,8.70
2023-02-18T16:50:19.323Z,10.53
2023-02-18T16:54:22.479Z,8.23
2023-02-18T16:58:25.455Z,12.47
2023-02-18T17:02:32.232Z,5.43
2023-02-18T17:06:48.464Z,9.00
2023-02-18T17:10:54.001Z,6.70
2023-02-18T17:14:57.278Z,8.13
2023-02-18T17:19:01.729Z,8.10
2023-02-18T17:23:04.980Z,11.30
2023-02-18T17:27:08.796Z,8.40
2023-02-18T17:31:16.755Z,9.50
2023-02-18T17:35:24.545Z,9.33
2023-02-18T17:39:29.847Z,9.00
2023-02-18T17:43:34.196Z,10.53
2023-02-18T17:47:37.335Z,9.83
2023-02-18T17:51:41.722Z,9.83
2023-02-18T17:55:46.405Z,9.37
2023-02-18T17:59:49.343Z,8.03
2023-02-18T18:03:52.401Z,7.97
2023-02-18T18:07:56.849Z,9.40
2023-02-18T18:12:00.003Z,9.50
2023-02-18T18:16:02.852Z,11.07
2023-02-18T18:20:07.848Z,12.90
2023-02-18T18:24:13.039Z,9.77
2023-02-18T18:28:17.494Z,17.00
2023-02-18T18:32:22.844Z,16.90
2023-02-18T18:36:26.186Z,21.87
2023-02-18T18:40:32.681Z,20.63
2023-02-18T18:44:35.888Z,21.67
2023-02-18T18:48:39.372Z,22.17
2023-02-18T18:52:43.584Z,26.83
2023-02-18T18:56:50.121Z,22.17
2023-02-18T19:00:55.320Z,25.37
2023-02-18T19:04:58.185Z,23.80
2023-02-18T19:09:01.183Z,24.90
2023-02-18T19:13:08.951Z,25.63
2023-02-18T19:17:13.102Z,24.53
2023-02-18T19:21:17.285Z,25.93
2023-02-18T19:25:26.597Z,25.73
2023-02-18T19:29:36.214Z,26.40
2023-02-18T19:33:51.431Z,34.53
2023-02-18T19:38:16.934Z,31.80
2023-02-18T19:42:20.633Z,33.90
2023-02-18T19:46:24.914Z,35.57
2023-02-18T19:50:31.064Z,34.93
2023-02-18T19:54:34.232Z,31.27
2023-02-18T19:58:40.012Z,32.40
2023-02-18T20:02:44.845Z,35.43
2023-02-18T20:06:48.008Z,32.73
2023-02-18T20:11:00.088Z,30.83
2023-02-18T20:15:09.507Z,32.93
2023-02-18T20:19:14.594Z,32.57
2023-02-18T20:23:23.177Z,27.37
2023-02-18T20:27:33.294Z,141.17
2023-02-18T20:31:37.432Z,32.07
2023-02-18T20:35:43.487Z,25.50
2023-02-18T20:39:57.403Z,23.77
2023-02-18T20:44:02.186Z,19.60
2023-02-18T20:48:06.069Z,18.77
2023-02-18T20:52:11.359Z,19.07
2023-02-18T20:56:15.705Z,22.30
2023-02-18T21:00:20.447Z,19.47
2023-02-18T21:04:23.947Z,28.03
2023-02-18T21:08:29.690Z,19.87
2023-02-18T21:12:32.765Z,22.57
2023-02-18T21:16:41.923Z,26.53
2023-02-18T21:20:59.607Z,29.20
2023-02-18T21:25:17.908Z,29.50
2023-02-18T21:29:21.004Z,28.57
2023-02-18T21:33:23.996Z,33.37
2023-02-18T21:37:56.045Z,35.20
2023-02-18T21:42:10.642Z,38.23
2023-02-18T21:46:31.298Z,36.10
2023-02-18T21:50:36.812Z,29.53
2023-02-18T21:54:41.331Z,33.00
2023-02-18T21:58:46.941Z,29.17
2023-02-18T22:02:59.506Z,40.57
2023-02-18T22:07:18.034Z,32.60
2023-02-18T22:11:36.661Z,36.33
2023-02-18T22:16:01.691Z,26.93
2023-02-18T22:20:19.534Z,25.97
2023-02-18T22:24:35.943Z,32.30
2023-02-18T22:28:54.810Z,24.73
2023-02-18T22:33:10.401Z,28.13
2023-02-18T22:37:24.636Z,23.37
2023-02-18T22:41:29.260Z,25.00
2023-02-18T22:45:33.134Z,32.30
2023-02-18T22:49:37.464Z,25.23
2023-02-18T22:53:41.401Z,21.20
2023-02-18T22:57:45.142Z,24.00
2023-02-18T23:01:58.232Z,28.27
2023-02-18T23:06:20.423Z,30.27
2023-02-18T23:10:39.619Z,22.30
2023-02-18T23:14:56.116Z,24.57
2023-02-18T23:19:00.248Z,21.97
2023-02-18T23:23:06.223Z,20.20
2023-02-18T23:27:10.269Z,18.80
2023-02-18T23:31:16.576Z,16.70
2023-02-18T23:35:34.303Z,16.43
2023-02-18T23:39:53.501Z,19.77
2023-02-18T23:44:05.390Z,21.47
2023-02-18T23:48:12.276Z,24.73
2023-02-18T23:52:15.588Z,23.70
2023-02-18T23:56:23.546Z,27.10
